createdAt,value
2023-02-14T00:00:54.430Z,1021.3
2023-02-14T00:01:55.623Z,1021.3
2023-02-14T00:02:57.315Z,1021.3
2023-02-14T00:03:58.591Z,1021.3
2023-02-14T00:04:59.945Z,1021.2
2023-02-14T00:06:01.257Z,1021.2
2023-02-14T00:07:02.681Z,1021.2
2023-02-14T00:08:03.809Z,1021.2
2023-02-14T00:09:04.702Z,1021.2
2023-02-14T00:10:06.144Z,1021.2
2023-02-14T00:11:07.811Z,1021.2
2023-02-14T00:12:09.234Z,1021.2
2023-02-14T00:13:10.097Z,1021.2
2023-02-14T00:14:11.500Z,1021.1
2023-02-14T00:15:12.915Z,1021.1
2023-02-14T00:16:13.834Z,1021.2
2023-02-14T00:17:14.958Z,1021.2
2023-02-14T00:18:16.670Z,1021.2
2023-02-14T00:19:20.701Z,1021.2
2023-02-14T00:20:21.838Z,1021.2
2023-02-14T00:21:23.256Z,1021.1
2023-02-14T00:22:24.447Z,1021.1
2023-02-14T00:23:25.866Z,1021.1
2023-02-14T00:24:27.279Z,1021.1
2023-02-14T00:25:28.720Z,1021.1
2023-02-14T00:26:29.334Z,1021.2
2023-02-14T00:27:30.492Z,1021.1
2023-02-14T00:28:31.387Z,1021.1
2023-02-14T00:29:32.538Z,1021.1
2023-02-14T00:30:34.133Z,1021.1
2023-02-14T00:31:35.783Z,1021.1
2023-02-14T00:32:36.611Z,1021.1
2023-02-14T00:33:38.021Z,1021.1
2023-02-14T00:34:38.884Z,1021.1
2023-02-14T00:35:39.824Z,1021.1
2023-02-14T00:36:40.711Z,1021.1
2023-02-14T00:37:41.629Z,1021.1
2023-02-14T00:38:42.770Z,1021.1
2023-02-14T00:39:44.175Z,1021.1
2023-02-14T00:40:45.340Z,1021.1
2023-02-14T00:41:46.510Z,1021.1
2023-02-14T00:42:47.685Z,1021.1
2023-02-14T00:43:48.817Z,1021.1
2023-02-14T00:44:49.683Z,1021.1
2023-02-14T00:45:50.939Z,1021.1
2023-02-14T00:46:51.964Z,1021.1
2023-02-14T00:47:53.376Z,1021.1
2023-02-14T00:48:54.278Z,1021.1
2023-02-14T00:49:55.427Z,1021.1
2023-02-14T00:50:56.741Z,1021.1
2023-02-14T00:51:58.817Z,1021.1
2023-02-14T00:52:59.957Z,1021.1
2023-02-14T00:54:01.095Z,1021.1
2023-02-14T00:55:02.258Z,1021.1
2023-02-14T00:56:03.670Z,1021.1
2023-02-14T00:57:04.780Z,1021.2
2023-02-14T00:58:05.920Z,1021.1
2023-02-14T00:59:07.336Z,1021.1
2023-02-14T01:00:08.750Z,1021.1
2023-02-14T01:01:10.224Z,1021.2
2023-02-14T01:02:11.720Z,1021.1
2023-02-14T01:03:13.235Z,1021.1
2023-02-14T01:04:14.648Z,1021.1
2023-02-14T01:05:16.065Z,1021.1
2023-02-14T01:06:17.480Z,1021.1
2023-02-14T01:07:18.899Z,1021.1
2023-02-14T01:08:20.314Z,1021.1
2023-02-14T01:09:21.728Z,1021.1
2023-02-14T01:10:23.140Z,1021.1
2023-02-14T01:11:24.582Z,1021.1
2023-02-14T01:12:25.702Z,1021.1
2023-02-14T01:13:27.113Z,1021.1
2023-02-14T01:14:28.403Z,1021.1
2023-02-14T01:15:29.616Z,1021.1
2023-02-14T01:16:30.809Z,1021
2023-02-14T01:17:32.074Z,1021
2023-02-14T01:18:33.210Z,1021
2023-02-14T01:19:34.350Z,1021
2023-02-14T01:20:35.763Z,1021
2023-02-14T01:21:37.186Z,1021
2023-02-14T01:22:38.324Z,1021
2023-02-14T01:23:39.731Z,1021
2023-02-14T01:24:41.151Z,1021
2023-02-14T01:25:42.049Z,1021
2023-02-14T01:26:43.250Z,1021
2023-02-14T01:27:44.640Z,1021
2023-02-14T01:28:46.065Z,1021
2023-02-14T01:29:47.671Z,1021
2023-02-14T01:30:48.980Z,1021
2023-02-14T01:31:50.386Z,1021
2023-02-14T01:32:51.756Z,1021
2023-02-14T01:33:53.171Z,1021
2023-02-14T01:34:54.302Z,1021
2023-02-14T01:35:55.436Z,1021
2023-02-14T01:36:57.222Z,1021
2023-02-14T01:37:58.075Z,1021
2023-02-14T01:38:59.569Z,1021
2023-02-14T01:40:00.989Z,1021
2023-02-14T01:41:02.661Z,1021
2023-02-14T01:42:03.849Z,1021
2023-02-14T01:43:05.230Z,1021
2023-02-14T01:44:06.644Z,1021
2023-02-14T01:45:07.553Z,1021
2023-02-14T01:46:09.017Z,1021
2023-02-14T01:47:10.384Z,1021
2023-02-14T01:48:11.527Z,1021
2023-02-14T01:49:12.653Z,1020.9
2023-02-14T01:50:14.063Z,1021
2023-02-14T01:51:15.637Z,1021
2023-02-14T01:52:16.822Z,1021
2023-02-14T01:53:18.227Z,1021
2023-02-14T01:54:19.122Z,1021
2023-02-14T01:55:20.549Z,1021
2023-02-14T01:56:21.677Z,1021
2023-02-14T01:57:23.132Z,1021
2023-02-14T01:58:24.508Z,1021
2023-02-14T01:59:25.651Z,1020.9
2023-02-14T02:00:27.062Z,1020.9
2023-02-14T02:01:28.367Z,1020.9
2023-02-14T02:02:29.770Z,1020.9
2023-02-14T02:03:30.775Z,1020.9
2023-02-14T02:04:32.189Z,1021
2023-02-14T02:05:33.607Z,1021
2023-02-14T02:06:35.020Z,1021
2023-02-14T02:07:36.161Z,1020.9
2023-02-14T02:08:37.296Z,1020.9
2023-02-14T02:09:38.716Z,1020.9
2023-02-14T02:10:40.124Z,1020.9
2023-02-14T02:11:41.544Z,1020.9
2023-02-14T02:12:42.989Z,1020.9
2023-02-14T02:13:44.143Z,1020.9
2023-02-14T02:14:45.565Z,1020.9
2023-02-14T02:15:46.986Z,1020.9
2023-02-14T02:16:48.492Z,1020.9
2023-02-14T02:17:49.816Z,1020.8
2023-02-14T02:18:51.240Z,1020.8
2023-02-14T02:19:52.651Z,1020.8
2023-02-14T02:20:53.783Z,1020.8
2023-02-14T02:21:54.920Z,1020.8
2023-02-14T02:22:56.067Z,1020.8
2023-02-14T02:23:57.199Z,1020.8
2023-02-14T02:24:58.612Z,1020.8
2023-02-14T02:25:59.749Z,1020.8
2023-02-14T02:27:01.162Z,1020.8
2023-02-14T02:28:02.608Z,1020.8
2023-02-14T02:29:04.001Z,1020.8
2023-02-14T02:30:05.379Z,1020.8
2023-02-14T02:31:06.667Z,1020.8
2023-02-14T02:32:08.047Z,1020.8
2023-02-14T02:33:09.193Z,1020.8
2023-02-14T02:34:10.339Z,1020.7
2023-02-14T02:35:11.466Z,1020.7
2023-02-14T02:36:12.894Z,1020.7
2023-02-14T02:37:14.492Z,1020.7
2023-02-14T02:38:15.636Z,1020.7
2023-02-14T02:39:16.824Z,1020.7
2023-02-14T02:40:17.965Z,1020.7
2023-02-14T02:41:19.377Z,1020.7
2023-02-14T02:42:20.794Z,1020.6
2023-02-14T02:43:22.236Z,1020.6
2023-02-14T02:44:23.623Z,1020.6
2023-02-14T02:45:24.761Z,1020.6
2023-02-14T02:46:26.017Z,1020.6
2023-02-14T02:47:27.297Z,1020.6
2023-02-14T02:48:28.436Z,1020.6
2023-02-14T02:49:29.854Z,1020.6
2023-02-14T02:50:30.991Z,1020.6
2023-02-14T02:51:32.407Z,1020.6
2023-02-14T02:52:33.822Z,1020.5
2023-02-14T02:53:34.955Z,1020.6
2023-02-14T02:54:36.092Z,1020.6
2023-02-14T02:55:37.513Z,1020.5
2023-02-14T02:56:38.648Z,1020.5
2023-02-14T02:57:40.061Z,1020.5
2023-02-14T02:58:41.260Z,1020.5
2023-02-14T02:59:42.649Z,1020.5
2023-02-14T03:00:44.061Z,1020.5
2023-02-14T03:01:45.644Z,1020.5
2023-02-14T03:02:46.682Z,1020.5
2023-02-14T03:03:47.819Z,1020.5
2023-02-14T03:04:49.379Z,1020.5
2023-02-14T03:05:50.480Z,1020.5
2023-02-14T03:06:51.899Z,1020.5
2023-02-14T03:07:53.043Z,1020.5
2023-02-14T03:08:54.458Z,1020.5
2023-02-14T03:09:55.871Z,1020.5
2023-02-14T03:10:57.550Z,1020.5
2023-02-14T03:11:59.112Z,1020.4
2023-02-14T03:13:00.527Z,1020.5
2023-02-14T03:14:01.970Z,1020.4
2023-02-14T03:15:03.373Z,1020.5
2023-02-14T03:16:04.913Z,1020.4
2023-02-14T03:17:06.520Z,1020.4
2023-02-14T03:18:07.652Z,1020.4
2023-02-14T03:19:08.792Z,1020.4
2023-02-14T03:20:10.213Z,1020.4
2023-02-14T03:21:11.344Z,1020.4
2023-02-14T03:22:12.763Z,1020.4
2023-02-14T03:23:14.182Z,1020.4
2023-02-14T03:24:15.590Z,1020.4
2023-02-14T03:25:16.739Z,1020.4
2023-02-14T03:26:18.185Z,1020.4
2023-02-14T03:27:19.567Z,1020.4
2023-02-14T03:28:20.464Z,1020.4
2023-02-14T03:29:21.913Z,1020.4
2023-02-14T03:30:23.927Z,1020.4
2023-02-14T03:31:25.295Z,1020.4
2023-02-14T03:32:26.684Z,1020.4
2023-02-14T03:33:28.099Z,1020.4
2023-02-14T03:34:29.528Z,1020.4
2023-02-14T03:35:30.654Z,1020.4
2023-02-14T03:36:31.794Z,1020.4
2023-02-14T03:37:33.202Z,1020.4
2023-02-14T03:38:34.448Z,1020.3
2023-02-14T03:39:35.593Z,1020.3
2023-02-14T03:40:36.998Z,1020.3
2023-02-14T03:41:38.417Z,1020.3
2023-02-14T03:42:39.833Z,1020.3
2023-02-14T03:43:41.246Z,1020.3
2023-02-14T03:44:42.406Z,1020.3
2023-02-14T03:45:43.798Z,1020.4
2023-02-14T03:46:45.394Z,1020.3
2023-02-14T03:47:46.800Z,1020.3
2023-02-14T03:48:48.025Z,1020.3
2023-02-14T03:49:49.450Z,1020.3
2023-02-14T03:50:50.862Z,1020.3
2023-02-14T03:51:51.999Z,1020.3
2023-02-14T03:52:53.181Z,1020.3
2023-02-14T03:53:54.608Z,1020.3
2023-02-14T03:54:55.734Z,1020.3
2023-02-14T03:55:57.150Z,1020.2
2023-02-14T03:56:58.574Z,1020.2
2023-02-14T03:57:59.705Z,1020.3
2023-02-14T03:59:01.119Z,1020.3
2023-02-14T04:00:02.563Z,1020.3
2023-02-14T04:01:03.962Z,1020.3
2023-02-14T04:02:05.089Z,1020.3
2023-02-14T04:03:06.364Z,1020.2
2023-02-14T04:04:08.068Z,1020.3
2023-02-14T04:05:09.487Z,1020.3
2023-02-14T04:06:10.909Z,1020.3
2023-02-14T04:07:12.044Z,1020.3
2023-02-14T04:08:13.451Z,1020.3
2023-02-14T04:09:14.867Z,1020.3
2023-02-14T04:10:16.286Z,1020.3
2023-02-14T04:11:17.422Z,1020.3
2023-02-14T04:12:35.933Z,1020.3
2023-02-14T04:13:39.068Z,1020.3
2023-02-14T04:14:40.494Z,1020.2
2023-02-14T04:15:41.457Z,1020.3
2023-02-14T04:16:42.776Z,1020.3
2023-02-14T04:17:43.640Z,1020.3
2023-02-14T04:18:45.051Z,1020.3
2023-02-14T04:19:46.467Z,1020.3
2023-02-14T04:20:47.603Z,1020.3
2023-02-14T04:21:49.017Z,1020.2
2023-02-14T04:22:50.434Z,1020.3
2023-02-14T04:23:51.622Z,1020.2
2023-02-14T04:24:52.785Z,1020.2
2023-02-14T04:25:53.669Z,1020.2
2023-02-14T04:26:55.088Z,1020.2
2023-02-14T04:27:56.504Z,1020.2
2023-02-14T04:28:57.917Z,1020.1
2023-02-14T04:29:59.224Z,1020.1
2023-02-14T04:31:01.927Z,1020.1
2023-02-14T04:32:04.007Z,1020.1
2023-02-14T04:33:05.509Z,1020.1
2023-02-14T04:34:06.924Z,1020.1
2023-02-14T04:35:08.342Z,1020.1
2023-02-14T04:36:09.476Z,1020.1
2023-02-14T04:37:10.769Z,1020.1
2023-02-14T04:38:12.186Z,1020.1
2023-02-14T04:39:13.331Z,1020.1
2023-02-14T04:40:15.016Z,1020.1
2023-02-14T04:41:16.446Z,1020.1
2023-02-14T04:42:17.572Z,1020.1
2023-02-14T04:43:18.986Z,1020
2023-02-14T04:44:20.401Z,1020
2023-02-14T04:45:21.816Z,1020
2023-02-14T04:46:30.604Z,1020
2023-02-14T04:47:31.530Z,1020
2023-02-14T04:48:32.937Z,1020
2023-02-14T04:49:34.227Z,1020
2023-02-14T04:50:35.460Z,1020
2023-02-14T04:51:36.579Z,1020
2023-02-14T04:52:37.716Z,1020
2023-02-14T04:53:39.139Z,1020
2023-02-14T04:54:40.032Z,1020
2023-02-14T04:55:41.450Z,1020
2023-02-14T04:56:42.646Z,1020
2023-02-14T04:57:43.761Z,1020
2023-02-14T04:58:44.614Z,1020
2023-02-14T04:59:46.032Z,1020
2023-02-14T05:00:47.067Z,1020
2023-02-14T05:01:48.472Z,1020
2023-02-14T05:02:49.949Z,1020
2023-02-14T05:03:51.087Z,1020
2023-02-14T05:04:52.502Z,1020
2023-02-14T05:05:53.638Z,1020
2023-02-14T05:06:55.052Z,1020
2023-02-14T05:07:55.911Z,1019.9
2023-02-14T05:08:57.050Z,1019.9
2023-02-14T05:09:58.462Z,1019.9
2023-02-14T05:11:00.555Z,1019.9
2023-02-14T05:12:02.199Z,1019.9
2023-02-14T05:13:03.094Z,1019.9
2023-02-14T05:14:04.288Z,1019.9
2023-02-14T05:15:05.702Z,1019.9
2023-02-14T05:16:07.292Z,1019.9
2023-02-14T05:17:08.215Z,1019.9
2023-02-14T05:18:09.391Z,1020
2023-02-14T05:19:10.810Z,1020
2023-02-14T05:20:12.223Z,1019.9
2023-02-14T05:21:13.666Z,1019.9
2023-02-14T05:22:18.517Z,1019.9
2023-02-14T05:23:19.478Z,1019.9
2023-02-14T05:24:20.615Z,1019.9
2023-02-14T05:25:21.748Z,1019.9
2023-02-14T05:26:22.883Z,1020
2023-02-14T05:27:24.570Z,1019.9
2023-02-14T05:28:25.978Z,1019.9
2023-02-14T05:29:26.874Z,1019.9
2023-02-14T05:30:28.756Z,1019.9
2023-02-14T05:31:30.029Z,1019.9
2023-02-14T05:32:31.590Z,1019.9
2023-02-14T05:33:33.010Z,1019.9
2023-02-14T05:34:34.425Z,1019.9
2023-02-14T05:35:35.281Z,1019.9
2023-02-14T05:36:36.699Z,1019.9
2023-02-14T05:37:37.832Z,1019.9
2023-02-14T05:38:39.250Z,1019.9
2023-02-14T05:39:40.665Z,1019.9
2023-02-14T05:40:42.079Z,1019.9
2023-02-14T05:41:43.219Z,1019.9
2023-02-14T05:42:44.632Z,1019.8
2023-02-14T05:43:45.818Z,1019.8
2023-02-14T05:44:46.957Z,1019.8
2023-02-14T05:45:48.218Z,1019.8
2023-02-14T05:46:49.415Z,1019.8
2023-02-14T05:47:50.575Z,1019.8
2023-02-14T05:48:51.717Z,1019.8
2023-02-14T05:49:52.585Z,1019.8
2023-02-14T05:50:53.993Z,1019.7
2023-02-14T05:51:55.234Z,1019.7
2023-02-14T05:52:56.647Z,1019.7
2023-02-14T05:53:57.501Z,1019.7
2023-02-14T05:54:59.024Z,1019.7
2023-02-14T05:55:59.929Z,1019.8
2023-02-14T05:57:01.337Z,1019.8
2023-02-14T05:58:02.758Z,1019.8
2023-02-14T05:59:04.169Z,1019.8
2023-02-14T06:00:05.586Z,1019.8
2023-02-14T06:01:06.775Z,1019.8
2023-02-14T06:02:08.181Z,1019.8
2023-02-14T06:03:09.764Z,1019.8
2023-02-14T06:04:11.220Z,1019.8
2023-02-14T06:05:12.637Z,1019.8
2023-02-14T06:06:13.536Z,1019.8
2023-02-14T06:07:14.957Z,1019.8
2023-02-14T06:08:15.845Z,1019.8
2023-02-14T06:09:17.262Z,1019.8
2023-02-14T06:10:18.408Z,1019.8
2023-02-14T06:11:19.818Z,1019.8
2023-02-14T06:12:21.238Z,1019.8
2023-02-14T06:13:22.132Z,1019.8
2023-02-14T06:14:23.558Z,1019.8
2023-02-14T06:15:24.971Z,1019.8
2023-02-14T06:16:26.027Z,1019.8
2023-02-14T06:17:27.161Z,1019.8
2023-02-14T06:18:28.323Z,1019.8
2023-02-14T06:19:29.437Z,1019.8
2023-02-14T06:20:30.850Z,1019.8
2023-02-14T06:21:31.754Z,1019.8
2023-02-14T06:22:33.171Z,1019.8
2023-02-14T06:23:34.585Z,1019.8
2023-02-14T06:24:36.001Z,1019.7
2023-02-14T06:25:36.896Z,1019.8
2023-02-14T06:26:38.312Z,1019.8
2023-02-14T06:27:39.452Z,1019.8
2023-02-14T06:28:41.095Z,1019.8
2023-02-14T06:29:42.233Z,1019.8
2023-02-14T06:30:43.841Z,1019.8
2023-02-14T06:31:45.730Z,1019.8
2023-02-14T06:32:47.119Z,1019.8
2023-02-14T06:33:48.041Z,1019.8
2023-02-14T06:34:49.184Z,1019.8
2023-02-14T06:35:50.576Z,1019.8
2023-02-14T06:36:52.002Z,1019.8
2023-02-14T06:37:53.410Z,1019.8
2023-02-14T06:38:54.552Z,1019.8
2023-02-14T06:39:55.683Z,1019.8
2023-02-14T06:40:57.881Z,1019.8
2023-02-14T06:42:01.624Z,1019.8
2023-02-14T06:43:02.541Z,1019.8
2023-02-14T06:44:03.950Z,1019.8
2023-02-14T06:45:05.364Z,1019.8
2023-02-14T06:46:06.908Z,1019.8
2023-02-14T06:47:08.349Z,1019.8
2023-02-14T06:48:09.761Z,1019.8
2023-02-14T06:49:11.205Z,1019.8
2023-02-14T06:50:12.035Z,1019.8
2023-02-14T06:51:13.173Z,1019.8
2023-02-14T06:52:14.358Z,1019.8
2023-02-14T06:53:15.613Z,1019.8
2023-02-14T06:54:16.984Z,1019.8
2023-02-14T06:55:18.120Z,1019.8
2023-02-14T06:56:19.303Z,1019.8
2023-02-14T06:57:20.480Z,1019.8
2023-02-14T06:58:21.898Z,1019.8
2023-02-14T06:59:22.791Z,1019.9
2023-02-14T07:00:23.981Z,1019.9
2023-02-14T07:01:25.247Z,1019.9
2023-02-14T07:02:26.726Z,1019.9
2023-02-14T07:03:27.606Z,1019.9
2023-02-14T07:04:29.061Z,1019.9
2023-02-14T07:05:29.679Z,1019.9
2023-02-14T07:06:31.092Z,1019.9
2023-02-14T07:07:32.520Z,1019.9
2023-02-14T07:08:33.717Z,1019.9
2023-02-14T07:09:35.130Z,1019.9
2023-02-14T07:10:36.551Z,1019.9
2023-02-14T07:11:37.959Z,1019.9
2023-02-14T07:12:39.380Z,1019.9
2023-02-14T07:13:40.319Z,1019.8
2023-02-14T07:14:41.725Z,1019.8
2023-02-14T07:15:43.283Z,1019.9
2023-02-14T07:16:44.551Z,1019.9
2023-02-14T07:17:45.971Z,1019.9
2023-02-14T07:18:47.108Z,1019.9
2023-02-14T07:19:48.553Z,1019.8
2023-02-14T07:20:49.941Z,1019.9
2023-02-14T07:21:51.352Z,1019.9
2023-02-14T07:22:52.260Z,1019.9
2023-02-14T07:23:53.393Z,1019.9
2023-02-14T07:24:54.531Z,1019.9
2023-02-14T07:25:55.956Z,1019.9
2023-02-14T07:26:57.360Z,1019.9
2023-02-14T07:27:58.512Z,1019.9
2023-02-14T07:28:59.914Z,1019.9
2023-02-14T07:30:01.844Z,1019.9
2023-02-14T07:31:04.332Z,1019.9
2023-02-14T07:32:06.750Z,1019.9
2023-02-14T07:33:08.527Z,1019.9
2023-02-14T07:34:09.684Z,1019.9
2023-02-14T07:35:10.933Z,1019.9
2023-02-14T07:36:11.831Z,1019.9
2023-02-14T07:37:12.961Z,1019.9
2023-02-14T07:38:14.373Z,1019.9
2023-02-14T07:39:15.793Z,1019.9
2023-02-14T07:40:17.205Z,1019.9
2023-02-14T07:41:18.622Z,1019.9
2023-02-14T07:42:20.039Z,1019.9
2023-02-14T07:43:21.451Z,1019.8
2023-02-14T07:44:22.866Z,1019.9
2023-02-14T07:45:23.770Z,1019.9
2023-02-14T07:46:25.246Z,1019.9
2023-02-14T07:47:26.553Z,1019.9
2023-02-14T07:48:33.191Z,1019.8
2023-02-14T07:49:35.346Z,1019.9
2023-02-14T07:50:36.522Z,1019.8
2023-02-14T07:51:37.654Z,1019.8
2023-02-14T07:52:39.051Z,1019.8
2023-02-14T07:53:40.184Z,1019.8
2023-02-14T07:54:41.105Z,1019.8
2023-02-14T07:55:42.307Z,1019.8
2023-02-14T07:56:43.721Z,1019.8
2023-02-14T07:57:45.138Z,1019.8
2023-02-14T07:58:46.553Z,1019.8
2023-02-14T07:59:47.967Z,1019.8
2023-02-14T08:01:55.654Z,1019.8
2023-02-14T08:02:57.171Z,1019.8
2023-02-14T08:03:58.600Z,1019.8
2023-02-14T08:05:00.274Z,1019.8
2023-02-14T08:06:01.827Z,1019.8
2023-02-14T08:07:03.220Z,1019.8
2023-02-14T08:08:04.629Z,1019.8
2023-02-14T08:09:06.044Z,1019.8
2023-02-14T08:10:07.462Z,1019.8
2023-02-14T08:11:08.882Z,1019.8
2023-02-14T08:12:10.333Z,1019.8
2023-02-14T08:13:11.713Z,1019.8
2023-02-14T08:14:13.129Z,1019.8
2023-02-14T08:15:14.543Z,1019.8
2023-02-14T08:16:16.057Z,1019.8
2023-02-14T08:17:17.586Z,1019.8
2023-02-14T08:18:19.362Z,1019.7
2023-02-14T08:19:20.769Z,1019.8
2023-02-14T08:20:22.190Z,1019.7
2023-02-14T08:21:23.631Z,1019.8
2023-02-14T08:22:25.018Z,1019.8
2023-02-14T08:23:26.431Z,1019.8
2023-02-14T08:24:27.855Z,1019.8
2023-02-14T08:25:29.338Z,1019.8
2023-02-14T08:26:30.751Z,1019.8
2023-02-14T08:27:32.170Z,1019.8
2023-02-14T08:28:34.012Z,1019.8
2023-02-14T08:29:35.430Z,1019.8
2023-02-14T08:30:36.850Z,1019.8
2023-02-14T08:31:38.395Z,1019.8
2023-02-14T08:32:40.292Z,1019.8
2023-02-14T08:33:42.125Z,1019.8
2023-02-14T08:34:43.680Z,1019.8
2023-02-14T08:35:45.100Z,1019.8
2023-02-14T08:36:46.540Z,1019.8
2023-02-14T08:37:47.927Z,1019.8
2023-02-14T08:38:49.340Z,1019.8
2023-02-14T08:39:50.761Z,1019.8
2023-02-14T08:40:52.225Z,1019.8
2023-02-14T08:41:53.632Z,1019.8
2023-02-14T08:42:55.064Z,1019.8
2023-02-14T08:43:56.454Z,1019.8
2023-02-14T08:44:57.873Z,1019.8
2023-02-14T08:45:59.879Z,1019.8
2023-02-14T08:47:02.201Z,1019.7
2023-02-14T08:48:03.743Z,1019.7
2023-02-14T08:49:05.156Z,1019.7
2023-02-14T08:50:06.589Z,1019.7
2023-02-14T08:51:08.002Z,1019.7
2023-02-14T08:52:09.432Z,1019.8
2023-02-14T08:53:10.820Z,1019.8
2023-02-14T08:54:12.236Z,1019.8
2023-02-14T08:55:13.744Z,1019.8
2023-02-14T08:56:15.134Z,1019.8
2023-02-14T08:57:16.662Z,1019.8
2023-02-14T08:58:18.058Z,1019.8
2023-02-14T08:59:19.488Z,1019.8
2023-02-14T09:00:20.887Z,1019.8
2023-02-14T09:01:22.507Z,1019.8
2023-02-14T09:02:24.101Z,1019.8
2023-02-14T09:03:25.530Z,1019.8
2023-02-14T09:04:27.166Z,1019.8
2023-02-14T09:05:28.767Z,1019.8
2023-02-14T09:06:30.164Z,1019.8
2023-02-14T09:07:31.615Z,1019.8
2023-02-14T09:08:33.015Z,1019.8
2023-02-14T09:09:34.490Z,1019.8
2023-02-14T09:10:35.986Z,1019.8
2023-02-14T09:11:37.398Z,1019.8
2023-02-14T09:12:38.821Z,1019.8
2023-02-14T09:13:40.254Z,1019.8
2023-02-14T09:14:41.661Z,1019.8
2023-02-14T09:15:43.112Z,1019.8
2023-02-14T09:16:44.730Z,1019.8
2023-02-14T09:17:46.375Z,1019.8
2023-02-14T09:18:47.973Z,1019.8
2023-02-14T09:19:49.670Z,1019.8
2023-02-14T09:20:51.205Z,1019.8
2023-02-14T09:21:52.680Z,1019.7
2023-02-14T09:22:54.090Z,1019.7
2023-02-14T09:23:55.505Z,1019.7
2023-02-14T09:24:56.904Z,1019.7
2023-02-14T09:25:58.336Z,1019.8
2023-02-14T09:26:59.746Z,1019.8
2023-02-14T09:28:01.164Z,1019.8
2023-02-14T09:29:02.586Z,1019.8
2023-02-14T09:30:04.221Z,1019.7
2023-02-14T09:31:05.892Z,1019.7
2023-02-14T09:32:07.806Z,1019.7
2023-02-14T09:33:09.489Z,1019.7
2023-02-14T09:34:10.911Z,1019.7
2023-02-14T09:35:12.312Z,1019.8
2023-02-14T09:36:13.726Z,1019.8
2023-02-14T09:37:15.152Z,1019.8
2023-02-14T09:38:16.578Z,1019.8
2023-02-14T09:39:17.978Z,1019.8
2023-02-14T09:40:19.406Z,1019.8
2023-02-14T09:41:20.943Z,1019.8
2023-02-14T09:42:22.357Z,1019.8
2023-02-14T09:43:23.785Z,1019.8
2023-02-14T09:44:25.229Z,1019.7
2023-02-14T09:45:26.796Z,1019.8
2023-02-14T09:46:28.407Z,1019.7
2023-02-14T09:47:29.822Z,1019.7
2023-02-14T09:48:31.239Z,1019.7
2023-02-14T09:49:33.068Z,1019.7
2023-02-14T09:50:35.009Z,1019.7
2023-02-14T09:51:36.444Z,1019.7
2023-02-14T09:52:37.872Z,1019.7
2023-02-14T09:53:39.406Z,1019.7
2023-02-14T09:54:40.972Z,1019.7
2023-02-14T09:55:42.387Z,1019.7
2023-02-14T09:56:52.269Z,1019.6
2023-02-14T09:57:53.789Z,1019.6
2023-02-14T09:58:55.206Z,1019.7
2023-02-14T09:59:56.625Z,1019.6
2023-02-14T10:00:58.716Z,1019.6
2023-02-14T10:02:01.023Z,1019.6
2023-02-14T10:03:02.437Z,1019.6
2023-02-14T10:04:03.963Z,1019.6
2023-02-14T10:05:05.377Z,1019.6
2023-02-14T10:06:06.790Z,1019.6
2023-02-14T10:07:08.207Z,1019.6
2023-02-14T10:08:09.624Z,1019.7
2023-02-14T10:09:11.082Z,1019.6
2023-02-14T10:10:12.454Z,1019.6
2023-02-14T10:11:13.879Z,1019.6
2023-02-14T10:12:15.285Z,1019.6
2023-02-14T10:13:16.704Z,1019.6
2023-02-14T10:14:18.120Z,1019.6
2023-02-14T10:15:19.534Z,1019.6
2023-02-14T10:16:20.991Z,1019.6
2023-02-14T10:17:22.487Z,1019.6
2023-02-14T10:18:23.898Z,1019.6
2023-02-14T10:19:25.329Z,1019.6
2023-02-14T10:20:26.740Z,1019.6
2023-02-14T10:21:28.264Z,1019.6
2023-02-14T10:22:29.672Z,1019.6
2023-02-14T10:23:31.089Z,1019.5
2023-02-14T10:24:32.529Z,1019.5
2023-02-14T10:25:33.922Z,1019.5
2023-02-14T10:26:35.340Z,1019.5
2023-02-14T10:27:36.796Z,1019.6
2023-02-14T10:28:38.174Z,1019.5
2023-02-14T10:29:39.595Z,1019.5
2023-02-14T10:30:41.208Z,1019.6
2023-02-14T10:31:43.263Z,1019.6
2023-02-14T10:32:44.913Z,1019.6
2023-02-14T10:33:46.327Z,1019.6
2023-02-14T10:34:48.058Z,1019.6
2023-02-14T10:35:49.460Z,1019.6
2023-02-14T10:36:50.873Z,1019.6
2023-02-14T10:37:52.290Z,1019.6
2023-02-14T10:38:53.707Z,1019.6
2023-02-14T10:39:55.190Z,1019.6
2023-02-14T10:40:56.609Z,1019.5
2023-02-14T10:41:58.316Z,1019.5
2023-02-14T10:42:59.728Z,1019.5
2023-02-14T10:44:01.126Z,1019.6
2023-02-14T10:45:02.540Z,1019.6
2023-02-14T10:46:04.359Z,1019.5
2023-02-14T10:47:06.004Z,1019.6
2023-02-14T10:48:07.421Z,1019.6
2023-02-14T10:49:08.839Z,1019.6
2023-02-14T10:50:10.255Z,1019.6
2023-02-14T10:51:11.674Z,1019.6
2023-02-14T10:52:13.147Z,1019.6
2023-02-14T10:53:14.530Z,1019.6
2023-02-14T10:54:16.018Z,1019.6
2023-02-14T10:55:32.967Z,1019.5
2023-02-14T10:56:34.487Z,1019.5
2023-02-14T10:57:35.894Z,1019.5
2023-02-14T10:58:37.335Z,1019.5
2023-02-14T10:59:38.727Z,1019.5
2023-02-14T11:00:40.182Z,1019.5
2023-02-14T11:01:41.383Z,1019.5
2023-02-14T11:02:42.681Z,1019.5
2023-02-14T11:03:44.866Z,1019.5
2023-02-14T11:04:46.320Z,1019.5
2023-02-14T11:05:47.728Z,1019.5
2023-02-14T11:06:49.203Z,1019.5
2023-02-14T11:07:50.649Z,1019.5
2023-02-14T11:08:52.181Z,1019.5
2023-02-14T11:09:53.690Z,1019.5
2023-02-14T11:10:55.153Z,1019.5
2023-02-14T11:11:56.822Z,1019.5
2023-02-14T11:12:58.227Z,1019.5
2023-02-14T11:13:59.669Z,1019.5
2023-02-14T11:15:01.063Z,1019.5
2023-02-14T11:16:03.361Z,1019.5
2023-02-14T11:17:05.039Z,1019.5
2023-02-14T11:18:06.454Z,1019.5
2023-02-14T11:19:07.889Z,1019.5
2023-02-14T11:20:09.288Z,1019.4
2023-02-14T11:21:10.704Z,1019.4
2023-02-14T11:22:12.119Z,1019.4
2023-02-14T11:23:13.528Z,1019.4
2023-02-14T11:24:14.947Z,1019.4
2023-02-14T11:25:16.359Z,1019.4
2023-02-14T11:26:17.776Z,1019.4
2023-02-14T11:27:19.192Z,1019.3
2023-02-14T11:28:20.644Z,1019.3
2023-02-14T11:29:22.049Z,1019.3
2023-02-14T11:30:23.612Z,1019.3
2023-02-14T11:31:25.552Z,1019.3
2023-02-14T11:32:27.218Z,1019.3
2023-02-14T11:33:28.633Z,1019.3
2023-02-14T11:34:30.047Z,1019.3
2023-02-14T11:35:31.469Z,1019.3
2023-02-14T11:36:32.881Z,1019.3
2023-02-14T11:37:34.323Z,1019.3
2023-02-14T11:38:35.733Z,1019.3
2023-02-14T11:39:37.138Z,1019.3
2023-02-14T11:40:38.545Z,1019.3
2023-02-14T11:41:39.957Z,1019.3
2023-02-14T11:42:41.379Z,1019.3
2023-02-14T11:43:42.898Z,1019.3
2023-02-14T11:44:44.326Z,1019.3
2023-02-14T11:45:45.948Z,1019.2
2023-02-14T11:46:54.181Z,1019.2
2023-02-14T11:47:55.734Z,1019.2
2023-02-14T11:48:57.150Z,1019.3
2023-02-14T11:49:58.565Z,1019.3
2023-02-14T11:51:00.788Z,1019.2
2023-02-14T11:52:02.578Z,1019.2
2023-02-14T11:53:04.232Z,1019.2
2023-02-14T11:54:05.913Z,1019.2
2023-02-14T11:55:07.358Z,1019.2
2023-02-14T11:56:08.782Z,1019.2
2023-02-14T11:57:10.228Z,1019.2
2023-02-14T11:58:11.677Z,1019.2
2023-02-14T11:59:13.089Z,1019.2
2023-02-14T12:00:14.547Z,1019.1
2023-02-14T12:01:15.938Z,1019.2
2023-02-14T12:02:17.536Z,1019.1
2023-02-14T12:03:19.199Z,1019.1
2023-02-14T12:04:20.649Z,1019.1
2023-02-14T12:05:22.068Z,1019.1
2023-02-14T12:06:23.492Z,1019.1
2023-02-14T12:07:24.901Z,1019.1
2023-02-14T12:08:26.310Z,1019.1
2023-02-14T12:09:27.756Z,1019
2023-02-14T12:10:29.147Z,1019
2023-02-14T12:11:30.574Z,1019
2023-02-14T12:12:31.977Z,1019
2023-02-14T12:13:33.404Z,1019
2023-02-14T12:14:34.807Z,1019
2023-02-14T12:15:36.278Z,1019
2023-02-14T12:16:37.979Z,1018.9
2023-02-14T12:17:39.396Z,1018.9
2023-02-14T12:18:40.813Z,1018.9
2023-02-14T12:19:42.225Z,1018.9
2023-02-14T12:20:43.639Z,1018.9
2023-02-14T12:21:45.069Z,1018.9
2023-02-14T12:22:46.470Z,1018.9
2023-02-14T12:23:47.889Z,1018.9
2023-02-14T12:24:49.303Z,1018.9
2023-02-14T12:25:50.743Z,1018.9
2023-02-14T12:26:52.136Z,1018.9
2023-02-14T12:27:53.574Z,1018.9
2023-02-14T12:28:54.968Z,1018.8
2023-02-14T12:29:56.458Z,1018.8
2023-02-14T12:30:58.630Z,1018.8
2023-02-14T12:32:01.360Z,1018.8
2023-02-14T12:33:03.075Z,1018.8
2023-02-14T12:34:04.494Z,1018.7
2023-02-14T12:35:05.905Z,1018.7
2023-02-14T12:36:07.042Z,1018.7
2023-02-14T12:37:08.457Z,1018.7
2023-02-14T12:38:10.325Z,1018.7
2023-02-14T12:39:11.736Z,1018.8
2023-02-14T12:40:13.201Z,1018.7
2023-02-14T12:41:14.574Z,1018.7
2023-02-14T12:42:15.991Z,1018.7
2023-02-14T12:43:17.411Z,1018.7
2023-02-14T12:44:18.820Z,1018.7
2023-02-14T12:45:20.011Z,1018.6
2023-02-14T12:46:21.332Z,1018.6
2023-02-14T12:47:22.741Z,1018.6
2023-02-14T12:48:24.158Z,1018.6
2023-02-14T12:49:25.579Z,1018.6
2023-02-14T12:50:26.990Z,1018.6
2023-02-14T12:51:28.424Z,1018.6
2023-02-14T12:52:29.820Z,1018.5
2023-02-14T12:53:30.979Z,1018.6